»·PEaware :: ASA510 KBOI-KSLC

ASA510 :: KBOI-KSLC

FLIGHT INFORMATION

Flight Status: Arrived
Operator:
Alaska Airlines
More flights by this operator :: More flights under this callsign
Pilot: Don S. (25423)
Aircraft: BOEING 737-200
(B732)
More flights by this aircraft type
Origin: KBOI Boise Air Terminal/Gowen
United States
Destination: KSLC Salt Lake City Intl
United States
More flights between these airports :: More routes between these airports
Route: +BOI3 BOI BYI BEARR5
File this flight plan on PilotEdge
Remarks:
Altitude:
(Current/Filed)
27,000ft
Speed:
(Current/Filed)
420kts
Departed: 15-Jul-19 12:48 PM
Arrived: 15-Jul-19 01:42 PM
Distance/Time
Traveled:
252nm/0:54
Distance/Time
To Go:
Arrived

Flight Plot

Page will automatically refresh every two minutes.


Map Options




Map Legend


Flown Route
Filed Route
Departure Airport
Arrival Airport
Navaid (VOR, NDB)
Fix

Horizontal Profiles

Position Reports

Time Latitude Longitude Heading Altitude Ground
Speed
15-Jul-19 12:18 43.566653 -116.218820 356 2880ft 0kts
15-Jul-19 12:19 43.566653 -116.218820 356 2880ft 0kts
15-Jul-19 12:20 43.566653 -116.218820 356 2880ft 0kts
15-Jul-19 12:21 43.566653 -116.218820 356 2880ft 0kts
15-Jul-19 12:22 43.566653 -116.218820 356 2880ft 0kts
15-Jul-19 12:23 43.566653 -116.218820 356 2880ft 0kts
15-Jul-19 12:24 43.566653 -116.218820 356 2880ft 0kts
15-Jul-19 12:25 43.566653 -116.218820 356 2880ft 0kts
15-Jul-19 12:26 43.566653 -116.218820 356 2880ft 0kts
15-Jul-19 12:27 43.566653 -116.218820 356 2880ft 0kts
15-Jul-19 12:28 43.566653 -116.218820 356 2880ft 0kts
15-Jul-19 12:29 43.566653 -116.218820 356 2880ft 0kts
15-Jul-19 12:30 43.566653 -116.218820 356 2880ft 0kts
15-Jul-19 12:31 43.566653 -116.218820 356 2880ft 0kts
15-Jul-19 12:32 43.566653 -116.218820 356 2880ft 0kts
15-Jul-19 12:33 43.566653 -116.218820 356 2880ft 0kts
15-Jul-19 12:34 43.566653 -116.218820 356 2880ft 0kts
15-Jul-19 12:35 43.566653 -116.218820 356 2880ft 0kts
15-Jul-19 12:36 43.566189 -116.218755 357 2880ft 2kts
15-Jul-19 12:37 43.565841 -116.218516 295 2880ft 0kts
15-Jul-19 12:38 43.565841 -116.218516 295 2880ft 0kts
15-Jul-19 12:39 43.565841 -116.218516 295 2880ft 0kts
15-Jul-19 12:40 43.566242 -116.219670 296 2880ft 7kts
15-Jul-19 12:41 43.566354 -116.220521 232 2880ft 0kts
15-Jul-19 12:42 43.566176 -116.220671 190 2880ft 2kts
15-Jul-19 12:43 43.565145 -116.218518 113 2880ft 8kts
15-Jul-19 12:44 43.563835 -116.214747 113 2880ft 16kts
15-Jul-19 12:45 43.561225 -116.208708 193 2880ft 16kts
15-Jul-19 12:46 43.559890 -116.209570 209 2880ft 1kts
15-Jul-19 12:47 43.562163 -116.219412 295 2880ft 104kts
15-Jul-19 12:48 43.579879 -116.277822 291 4576ft 206kts
15-Jul-19 12:49 43.603792 -116.358992 291 6944ft 269kts
15-Jul-19 12:50 43.594325 -116.451542 210 10081ft 283kts
15-Jul-19 12:51 43.521133 -116.414739 125 12405ft 339kts
15-Jul-19 12:52 43.471279 -116.300553 124 15216ft 355kts
15-Jul-19 12:53 43.420277 -116.179460 123 17644ft 371kts
15-Jul-19 12:54 43.368396 -116.052402 123 19766ft 387kts
15-Jul-19 12:55 43.315916 -115.922063 123 21621ft 401kts
15-Jul-19 12:56 43.260876 -115.784077 123 23315ft 414kts
15-Jul-19 12:57 43.203793 -115.642392 123 24787ft 427kts
15-Jul-19 12:58 43.144840 -115.497410 123 26200ft 437kts
15-Jul-19 12:59 43.076079 -115.357977 134 27066ft 441kts
15-Jul-19 13:00 42.998827 -115.228588 133 27060ft 448kts
15-Jul-19 13:01 42.920054 -115.094490 133 27115ft 451kts
15-Jul-19 13:02 42.840324 -114.960654 133 27121ft 454kts
15-Jul-19 13:03 42.760032 -114.825288 133 27121ft 455kts
15-Jul-19 13:04 42.684347 -114.686983 116 27126ft 464kts
15-Jul-19 13:05 42.655948 -114.517276 99 27123ft 471kts
15-Jul-19 13:06 42.638014 -114.338115 100 27122ft 472kts
15-Jul-19 13:07 42.620373 -114.159822 100 27118ft 472kts
15-Jul-19 13:08 42.602003 -113.982729 103 27109ft 468kts
15-Jul-19 13:09 42.569671 -113.812304 107 27110ft 464kts
15-Jul-19 13:10 42.491014 -113.692943 154 27115ft 434kts
15-Jul-19 13:11 42.390342 -113.600303 143 27112ft 439kts
15-Jul-19 13:12 42.300177 -113.486544 140 27112ft 441kts
15-Jul-19 13:13 42.211928 -113.369386 139 27113ft 441kts
15-Jul-19 13:14 42.123829 -113.252132 139 27106ft 439kts
15-Jul-19 13:15 42.037896 -113.138236 139 27107ft 438kts
15-Jul-19 13:16 41.950347 -113.022434 139 27104ft 432kts
15-Jul-19 13:17 41.865460 -112.910610 138 25239ft 419kts
15-Jul-19 13:18 41.777874 -112.812580 142 23305ft 401kts
15-Jul-19 13:19 41.697293 -112.711507 139 20258ft 382kts
15-Jul-19 13:20 41.623410 -112.615319 138 17320ft 368kts
15-Jul-19 13:21 41.552551 -112.522741 138 17099ft 344kts
15-Jul-19 13:22 41.476680 -112.446790 157 17109ft 338kts
15-Jul-19 13:23 41.392060 -112.387551 150 17105ft 346kts
15-Jul-19 13:24 41.308575 -112.320721 152 17109ft 351kts
15-Jul-19 13:25 41.224522 -112.257947 153 15291ft 366kts
15-Jul-19 13:26 41.138407 -112.193917 153 13186ft 336kts
15-Jul-19 13:27 41.057636 -112.140327 171 11113ft 305kts
15-Jul-19 13:28 40.984002 -112.122575 172 11048ft 233kts
15-Jul-19 13:29 40.923320 -112.107406 172 11006ft 219kts
15-Jul-19 13:30 40.861366 -112.094655 181 11012ft 237kts
15-Jul-19 13:31 40.792000 -112.094674 182 11004ft 254kts
15-Jul-19 13:32 40.723460 -112.094595 182 10845ft 233kts
15-Jul-19 13:33 40.660624 -112.093985 182 9979ft 203kts
15-Jul-19 13:34 40.604650 -112.093264 182 10040ft 202kts
15-Jul-19 13:35 40.567209 -112.052852 85 9446ft 232kts
15-Jul-19 13:36 40.589728 -111.967530 30 7151ft 258kts
15-Jul-19 13:37 40.646777 -111.978407 344 6749ft 199kts
15-Jul-19 13:38 40.698647 -111.984777 350 5778ft 164kts
15-Jul-19 13:39 40.743386 -111.991072 351 4884ft 155kts
15-Jul-19 13:40 40.782138 -111.996437 351 4236ft 122kts
15-Jul-19 13:41 40.790681 -111.996679 18 4236ft 5kts
15-Jul-19 13:42 40.791006 -111.993994 97 4236ft 0kts
15-Jul-19 13:43 40.791259 -111.989543 83 4236ft 16kts
15-Jul-19 13:44 40.791597 -111.984600 83 4236ft 15kts
15-Jul-19 13:45 40.791542 -111.983145 132 4236ft 0kts
15-Jul-19 13:46 40.789142 -111.982076 135 4236ft 4kts
15-Jul-19 13:47 40.788997 -111.981875 132 4236ft 0kts

Navigation Log

Ident Type
Flight plan parsing failed, navigation log unavailable